Time;durP1;ratioP1;P1;durP2;ratioP2;P2;SDS_P1;SDS_P2;PMS_P1;PMS_P2;Temp;Humidity;BMP_temperature;BMP_pressure;BME280_temperature;BME280_humidity;BME280_pressure;Samples;Min_cycle;Max_cycle;Signal;HPM_P1;HPM_P2
2023/09/28 00:01:57;;;;;;;18.00;11.20;;;;;;;18.48;52.10;101169.23;107981;1253;59994;-65
2023/09/28 00:04:25;;;;;;;20.00;12.30;;;;;;;18.45;52.25;101169.94;108024;1253;71755;-65
2023/09/28 00:06:52;;;;;;;23.60;12.60;;;;;;;18.45;52.25;101169.02;107969;1253;70708;-66
2023/09/28 00:09:20;;;;;;;19.30;12.30;;;;;;;18.39;52.39;101167.20;108031;1258;72677;-66
2023/09/28 00:11:47;;;;;;;19.20;12.60;;;;;;;18.32;52.60;101165.44;107961;1258;61665;-67
2023/09/28 00:14:15;;;;;;;19.10;12.40;;;;;;;18.36;52.48;101161.88;107995;1254;59986;-66
2023/09/28 00:16:43;;;;;;;15.70;10.80;;;;;;;18.37;52.55;101167.68;107978;1253;73013;-66
2023/09/28 00:19:10;;;;;;;23.10;13.30;;;;;;;18.33;52.54;101163.98;108022;1253;71904;-65
2023/09/28 00:21:38;;;;;;;20.60;13.20;;;;;;;18.22;52.73;101168.27;107922;1254;72481;-66
2023/09/28 00:24:09;;;;;;;24.10;14.00;;;;;;;18.27;52.65;101169.63;107962;1253;62116;-66
2023/09/28 00:26:38;;;;;;;24.80;13.80;;;;;;;18.10;52.97;101170.67;108041;1253;59573;-66
2023/09/28 00:29:05;;;;;;;22.40;13.70;;;;;;;17.95;53.28;101169.69;108125;1253;71749;-66
2023/09/28 00:31:33;;;;;;;21.70;13.70;;;;;;;17.90;53.48;101169.95;108096;1253;70106;-66
2023/09/28 00:34:00;;;;;;;22.10;12.90;;;;;;;17.91;53.43;101168.31;108036;1253;72756;-65
2023/09/28 00:36:27;;;;;;;21.30;13.50;;;;;;;17.84;53.51;101168.09;108015;1253;61718;-66
2023/09/28 00:38:56;;;;;;;19.90;14.50;;;;;;;17.89;53.32;101167.33;108194;1253;59160;-66
2023/09/28 00:41:24;;;;;;;24.70;14.90;;;;;;;17.90;53.47;101165.86;108101;1253;73060;-66
2023/09/28 00:43:51;;;;;;;25.00;15.20;;;;;;;18.04;53.09;101163.91;108174;1253;70304;-65
2023/09/28 00:46:19;;;;;;;23.40;15.30;;;;;;;18.02;53.01;101166.12;107963;1253;71802;-66
2023/09/28 00:48:58;;;;;;;22.50;14.60;;;;;;;18.09;52.93;101165.59;107912;1253;60527;-65
2023/09/28 00:51:27;;;;;;;25.60;14.80;;;;;;;18.18;52.75;101165.84;107963;1253;60012;-65
2023/09/28 00:53:55;;;;;;;20.20;12.60;;;;;;;18.03;52.95;101158.07;107994;1253;73263;-66
2023/09/28 00:56:24;;;;;;;21.80;14.20;;;;;;;18.00;53.20;101158.41;108021;1253;70164;-64
2023/09/28 00:58:52;;;;;;;24.70;14.90;;;;;;;18.10;52.93;101158.79;107975;1255;70624;-66
2023/09/28 01:01:20;;;;;;;23.00;14.00;;;;;;;17.86;53.49;101156.98;107871;1256;60723;-66
2023/09/28 01:03:48;;;;;;;24.10;15.30;;;;;;;17.87;53.52;101158.16;108064;1254;59408;-65
2023/09/28 01:06:16;;;;;;;21.40;14.20;;;;;;;17.91;53.38;101153.72;108034;1256;72306;-66
2023/09/28 01:08:45;;;;;;;18.70;12.60;;;;;;;17.96;53.15;101154.37;108049;1254;70472;-66
2023/09/28 01:11:13;;;;;;;20.50;14.40;;;;;;;17.70;53.77;101159.56;107946;1256;72712;-66
2023/09/28 01:13:40;;;;;;;21.80;14.30;;;;;;;17.70;53.93;101156.88;107905;1254;61699;-65
2023/09/28 01:16:09;;;;;;;25.70;13.80;;;;;;;17.69;53.78;101154.11;107995;1256;60487;-66
2023/09/28 01:18:37;;;;;;;25.60;14.10;;;;;;;17.77;53.58;101157.08;107842;1255;73858;-66
2023/09/28 01:21:06;;;;;;;22.50;14.20;;;;;;;17.89;53.34;101154.36;107697;1261;69992;-65
2023/09/28 01:23:35;;;;;;;23.60;14.90;;;;;;;17.93;53.17;101158.77;107864;1255;72548;-66
2023/09/28 01:26:04;;;;;;;21.10;13.50;;;;;;;17.90;53.22;101156.63;107805;1255;62137;-64
2023/09/28 01:28:31;;;;;;;24.70;13.20;;;;;;;17.86;53.54;101155.92;107939;1256;60068;-64
2023/09/28 01:30:59;;;;;;;25.00;15.60;;;;;;;17.85;53.49;101157.93;107833;1255;73856;-65
2023/09/28 01:33:27;;;;;;;20.70;12.90;;;;;;;17.83;53.34;101160.16;107964;1255;69679;-65
2023/09/28 01:35:56;;;;;;;26.50;14.30;;;;;;;17.89;53.47;101160.27;107828;1255;74700;-66
2023/09/28 01:38:25;;;;;;;26.00;15.30;;;;;;;17.85;53.50;101165.04;107825;1255;61636;-64
2023/09/28 01:40:53;;;;;;;19.50;13.00;;;;;;;17.78;53.67;101169.06;107862;1255;60358;-65
2023/09/28 01:43:20;;;;;;;21.30;14.30;;;;;;;17.98;53.15;101166.19;107864;1255;71671;-63
2023/09/28 01:45:49;;;;;;;22.80;14.60;;;;;;;17.92;53.13;101169.66;107644;1255;69999;-65
2023/09/28 01:48:16;;;;;;;22.20;14.30;;;;;;;17.85;53.18;101170.36;107897;1255;71220;-66
2023/09/28 01:50:44;;;;;;;21.90;15.50;;;;;;;17.93;53.11;101168.90;107948;1255;63270;-65
2023/09/28 01:53:12;;;;;;;19.60;12.80;;;;;;;18.00;52.92;101172.46;107865;1255;59118;-67
2023/09/28 01:55:39;;;;;;;24.30;13.90;;;;;;;17.90;53.15;101172.23;107929;1258;73870;-66
2023/09/28 01:58:08;;;;;;;20.90;13.90;;;;;;;17.77;53.47;101171.46;107945;1255;70284;-65
2023/09/28 02:00:36;;;;;;;22.00;13.70;;;;;;;17.49;54.26;101177.64;107914;1255;72697;-65
2023/09/28 02:03:05;;;;;;;23.60;14.00;;;;;;;17.30;54.88;101177.51;107955;1256;62474;-65
2023/09/28 02:05:33;;;;;;;19.00;12.20;;;;;;;17.33;54.88;101179.99;107941;1258;62756;-66
2023/09/28 02:08:07;;;;;;;23.70;13.90;;;;;;;17.53;54.55;101184.04;107900;1256;73814;-66
2023/09/28 02:10:34;;;;;;;24.00;14.50;;;;;;;17.49;54.53;101183.15;107885;1259;69758;-65
2023/09/28 02:13:04;;;;;;;22.40;14.30;;;;;;;17.53;54.41;101183.30;107861;1256;73233;-66
2023/09/28 02:15:32;;;;;;;27.40;14.40;;;;;;;17.59;54.09;101177.84;107984;1254;62066;-66
2023/09/28 02:18:00;;;;;;;18.10;11.90;;;;;;;17.48;54.46;101182.15;107904;1254;60313;-66
2023/09/28 02:20:30;;;;;;;24.30;13.90;;;;;;;17.54;54.55;101181.83;107920;1260;73787;-66
2023/09/28 02:22:57;;;;;;;21.10;14.20;;;;;;;17.67;54.16;101184.20;107944;1254;70487;-66
2023/09/28 02:25:26;;;;;;;18.90;13.30;;;;;;;17.73;54.06;101180.89;107915;1256;72518;-67
2023/09/28 02:27:53;;;;;;;23.10;14.40;;;;;;;17.81;53.98;101178.36;108001;1254;61761;-67
2023/09/28 02:30:22;;;;;;;22.30;14.30;;;;;;;17.77;53.91;101180.71;108206;1253;60495;-66
2023/09/28 02:32:51;;;;;;;20.40;13.40;;;;;;;17.72;53.99;101181.80;108109;1253;72653;-67
2023/09/28 02:35:19;;;;;;;19.70;14.00;;;;;;;17.76;53.77;101183.22;108181;1253;70729;-67
2023/09/28 02:37:48;;;;;;;23.10;14.00;;;;;;;17.67;53.79;101181.70;108039;1253;73163;-65
2023/09/28 02:40:17;;;;;;;22.50;14.30;;;;;;;17.54;54.36;101185.59;107952;1259;61879;-66
2023/09/28 02:42:48;;;;;;;25.70;14.40;;;;;;;17.49;54.64;101188.30;108193;1253;60341;-66
2023/09/28 02:45:16;;;;;;;24.20;14.30;;;;;;;17.45;54.71;101186.87;108174;1259;74251;-65
2023/09/28 02:47:46;;;;;;;26.80;15.50;;;;;;;17.45;54.44;101190.97;107947;1253;70304;-66
2023/09/28 02:50:16;;;;;;;22.80;13.70;;;;;;;17.46;54.37;101190.56;108017;1258;71426;-67
2023/09/28 02:52:46;;;;;;;;;;;;;;;17.42;54.58;101191.28;108058;1258;60677;-66
2023/09/28 02:55:14;;;;;;;22.70;13.50;;;;;;;17.42;54.63;101186.00;108099;1258;60439;-66
2023/09/28 02:57:41;;;;;;;22.40;13.10;;;;;;;17.17;55.15;101179.90;108032;1253;74281;-66
2023/09/28 03:00:32;;;;;;;24.00;13.90;;;;;;;17.35;55.03;101178.86;108117;1255;70480;-65
2023/09/28 03:03:06;;;;;;;32.20;14.80;;;;;;;17.34;54.89;101174.10;107987;1254;71443;-67
2023/09/28 03:05:34;;;;;;;21.40;14.30;;;;;;;17.24;55.07;101173.35;107983;1259;60454;-66
2023/09/28 03:08:02;;;;;;;24.10;15.50;;;;;;;17.28;54.96;101170.16;108026;1259;60432;-66
2023/09/28 03:10:30;;;;;;;26.70;16.10;;;;;;;17.24;54.89;101170.73;107902;1254;73936;-66
2023/09/28 03:12:58;;;;;;;20.40;13.10;;;;;;;17.42;54.54;101175.33;108220;1254;67847;-66
2023/09/28 03:15:25;;;;;;;27.90;15.60;;;;;;;17.31;54.77;101177.24;107972;1259;72665;-65
2023/09/28 03:17:55;;;;;;;21.00;12.90;;;;;;;17.36;54.83;101176.65;107998;1256;61868;-66
2023/09/28 03:20:25;;;;;;;25.20;15.20;;;;;;;17.44;54.74;101175.21;107989;1254;60278;-66
2023/09/28 03:22:52;;;;;;;22.80;15.10;;;;;;;17.36;54.80;101174.89;108121;1254;73250;-66
2023/09/28 03:25:21;;;;;;;22.10;13.80;;;;;;;17.32;54.84;101174.58;107965;1254;70769;-65
2023/09/28 03:27:53;;;;;;;26.60;16.80;;;;;;;17.38;54.81;101171.45;107931;1255;72526;-65
2023/09/28 03:30:22;;;;;;;25.30;15.40;;;;;;;17.32;54.71;101173.66;108009;1259;61362;-67
2023/09/28 03:32:50;;;;;;;21.90;15.10;;;;;;;17.24;55.01;101172.84;108057;1258;60292;-66
2023/09/28 03:35:18;;;;;;;29.70;16.70;;;;;;;17.03;55.44;101173.83;108060;1253;73969;-66
2023/09/28 03:37:46;;;;;;;28.10;15.10;;;;;;;16.94;55.73;101174.58;108078;1254;70640;-65
2023/09/28 03:40:15;;;;;;;27.40;15.20;;;;;;;17.02;55.52;101175.83;108085;1254;72830;-66
2023/09/28 03:42:45;;;;;;;23.00;15.20;;;;;;;17.03;55.38;101174.16;108172;1254;62117;-66
2023/09/28 03:45:14;;;;;;;21.20;13.90;;;;;;;16.99;55.47;101181.63;108079;1253;60297;-65
2023/09/28 03:47:42;;;;;;;25.10;15.50;;;;;;;16.90;55.80;101182.57;108076;1259;73897;-65
2023/09/28 03:50:12;;;;;;;20.70;14.60;;;;;;;16.89;55.93;101182.64;108079;1254;70295;-68
2023/09/28 03:52:41;;;;;;;26.70;13.00;;;;;;;16.98;55.89;101184.54;108069;1258;72628;-66
2023/09/28 03:55:09;;;;;;;25.00;15.70;;;;;;;16.74;56.54;101183.64;108030;1254;61676;-65
2023/09/28 03:57:37;;;;;;;18.60;12.50;;;;;;;16.90;56.30;101187.04;108095;1253;60301;-66
2023/09/28 04:00:12;;;;;;;25.60;15.50;;;;;;;16.89;56.50;101188.65;108077;1253;73924;-65
2023/09/28 04:02:41;;;;;;;27.30;14.80;;;;;;;17.01;56.24;101190.77;108205;1254;69197;-66
2023/09/28 04:05:09;;;;;;;20.90;13.90;;;;;;;17.01;56.43;101183.52;108077;1258;71771;-66
2023/09/28 04:07:37;;;;;;;25.40;15.70;;;;;;;17.05;56.41;101184.02;108034;1254;61808;-66
2023/09/28 04:10:05;;;;;;;24.90;14.90;;;;;;;17.04;56.52;101179.81;108041;1254;60965;-66
2023/09/28 04:12:33;;;;;;;21.20;14.10;;;;;;;17.19;56.38;101174.81;108043;1258;72786;-65
2023/09/28 04:15:00;;;;;;;24.60;16.20;;;;;;;17.16;56.54;101174.45;108039;1254;70276;-66
2023/09/28 04:17:28;;;;;;;26.90;17.40;;;;;;;17.11;56.93;101175.73;108035;1253;72878;-66
2023/09/28 04:19:55;;;;;;;29.60;16.30;;;;;;;17.16;56.84;101174.80;108077;1254;61803;-66
2023/09/28 04:22:23;;;;;;;27.20;15.90;;;;;;;17.18;57.02;101181.12;108022;1254;60270;-66
2023/09/28 04:24:51;;;;;;;22.10;15.10;;;;;;;17.39;57.34;101180.83;107981;1255;74121;-66
2023/09/28 04:27:18;;;;;;;26.30;15.20;;;;;;;17.68;56.95;101180.61;108021;1254;68956;-67
2023/09/28 04:29:46;;;;;;;20.60;12.30;;;;;;;17.82;56.02;101179.73;108101;1254;72704;-66
2023/09/28 04:32:13;;;;;;;30.30;14.80;;;;;;;17.96;55.45;101184.36;108036;1254;61791;-66
2023/09/28 04:34:41;;;;;;;33.90;15.60;;;;;;;18.11;54.85;101184.30;107982;1254;60315;-66
2023/09/28 04:37:08;;;;;;;24.30;13.80;;;;;;;18.22;54.61;101188.50;108016;1254;72222;-66
2023/09/28 04:39:36;;;;;;;25.70;14.10;;;;;;;18.22;54.61;101188.00;108145;1254;71644;-66
2023/09/28 04:42:04;;;;;;;20.80;12.60;;;;;;;18.26;54.47;101189.42;108003;1258;72681;-65
2023/09/28 04:44:32;;;;;;;22.10;14.50;;;;;;;18.45;54.40;101192.66;107999;1253;61691;-66
2023/09/28 04:46:59;;;;;;;29.60;14.70;;;;;;;18.63;54.39;101190.30;108044;1254;60452;-64
2023/09/28 04:49:27;;;;;;;23.00;13.60;;;;;;;18.90;54.26;101190.30;107933;1259;73017;-65
2023/09/28 04:51:55;;;;;;;28.00;14.30;;;;;;;19.31;54.53;101188.70;108007;1258;70267;-66
2023/09/28 04:54:22;;;;;;;26.10;14.00;;;;;;;19.84;54.23;101194.05;108054;1253;71507;-66
2023/09/28 04:56:50;;;;;;;23.60;14.30;;;;;;;20.46;53.50;101190.87;107980;1254;61672;-67
2023/09/28 04:59:18;;;;;;;25.30;13.70;;;;;;;21.03;52.23;101194.12;107728;1254;59974;-65
2023/09/28 05:01:45;;;;;;;19.30;12.10;;;;;;;21.43;50.89;101187.08;107996;1254;73809;-66
2023/09/28 05:04:13;;;;;;;22.60;12.60;;;;;;;21.96;49.83;101190.66;108047;1254;70310;-66
2023/09/28 05:06:41;;;;;;;20.50;12.50;;;;;;;22.76;48.44;101192.84;108070;1254;72526;-67
2023/09/28 05:09:08;;;;;;;23.40;12.80;;;;;;;23.35;46.85;101193.10;108057;1254;64072;-67
2023/09/28 05:11:36;;;;;;;21.40;11.20;;;;;;;23.73;46.03;101198.54;107932;1254;60154;-68
2023/09/28 05:14:04;;;;;;;17.80;10.80;;;;;;;24.19;44.51;101201.45;108069;1254;73053;-68
2023/09/28 05:16:31;;;;;;;19.00;11.50;;;;;;;24.63;43.14;101202.21;108037;1254;70777;-64
2023/09/28 05:18:59;;;;;;;25.90;11.70;;;;;;;24.96;42.53;101200.41;107968;1254;72422;-65
2023/09/28 05:21:26;;;;;;;17.70;11.60;;;;;;;25.42;41.88;101195.27;107989;1253;61726;-66
2023/09/28 05:23:54;;;;;;;23.90;10.50;;;;;;;26.13;40.89;101195.42;108005;1258;60404;-68
2023/09/28 05:26:21;;;;;;;25.20;11.80;;;;;;;26.58;40.06;101196.61;107956;1254;73882;-68
2023/09/28 05:28:49;;;;;;;35.20;11.90;;;;;;;27.13;39.40;101193.00;108032;1253;69601;-67
2023/09/28 05:31:17;;;;;;;28.80;11.60;;;;;;;27.77;38.37;101192.45;107910;1259;72511;-66
2023/09/28 05:33:45;;;;;;;22.60;11.50;;;;;;;28.19;37.28;101193.16;107923;1257;60304;-67
2023/09/28 05:36:12;;;;;;;28.90;10.70;;;;;;;28.56;36.80;101193.85;108020;1254;59201;-67
2023/09/28 05:38:40;;;;;;;32.30;12.00;;;;;;;28.92;36.26;101192.36;107967;1254;73948;-67
2023/09/28 05:41:08;;;;;;;30.00;12.30;;;;;;;29.36;35.69;101194.16;107972;1259;71183;-66
2023/09/28 05:43:36;;;;;;;23.20;12.10;;;;;;;29.74;35.27;101197.27;107964;1260;72652;-68
2023/09/28 05:46:03;;;;;;;23.00;12.60;;;;;;;30.09;34.56;101203.83;107897;1259;60394;-68
2023/09/28 05:48:31;;;;;;;23.00;13.40;;;;;;;30.36;34.31;101198.30;108014;1254;60505;-68
2023/09/28 05:50:58;;;;;;;28.10;14.60;;;;;;;30.69;33.70;101202.85;107984;1254;73878;-67
2023/09/28 05:53:26;;;;;;;30.10;15.70;;;;;;;30.91;33.15;101204.30;107973;1257;70600;-67
2023/09/28 05:55:54;;;;;;;25.50;14.90;;;;;;;31.20;32.76;101203.05;107891;1254;71415;-67
2023/09/28 05:58:21;;;;;;;20.30;14.00;;;;;;;31.57;32.24;101201.38;107966;1253;62306;-68
2023/09/28 06:00:48;;;;;;;30.70;13.80;;;;;;;31.99;31.11;101205.38;108038;1256;60297;-66
2023/09/28 06:03:16;;;;;;;21.80;11.70;;;;;;;32.11;30.65;101205.33;107987;1254;73995;-67
2023/09/28 06:05:43;;;;;;;16.50;11.00;;;;;;;32.13;30.40;101201.39;108019;1254;69955;-65
2023/09/28 06:08:11;;;;;;;16.90;11.50;;;;;;;32.33;30.33;101203.17;107821;1254;72436;-68
2023/09/28 06:10:38;;;;;;;21.50;11.60;;;;;;;32.44;29.62;101202.88;107893;1257;62045;-66
2023/09/28 06:13:06;;;;;;;18.80;10.70;;;;;;;32.32;29.85;101204.54;107932;1254;62131;-68
2023/09/28 06:15:33;;;;;;;18.20;11.50;;;;;;;32.60;29.64;101209.27;107998;1254;73805;-68
2023/09/28 06:18:00;;;;;;;23.70;11.30;;;;;;;32.34;29.56;101204.64;108002;1254;70581;-68
2023/09/28 06:20:28;;;;;;;19.60;10.80;;;;;;;32.36;29.63;101206.84;108000;1254;72649;-68
2023/09/28 06:22:56;;;;;;;16.20;9.70;;;;;;;32.43;30.07;101206.02;108077;1254;60461;-68
2023/09/28 06:25:23;;;;;;;20.80;10.80;;;;;;;32.80;29.59;101205.45;108030;1254;61115;-67
2023/09/28 06:27:50;;;;;;;17.10;10.20;;;;;;;33.02;28.99;101208.37;108169;1254;73153;-68
2023/09/28 06:30:18;;;;;;;20.10;10.10;;;;;;;33.32;28.65;101206.04;108032;1254;69155;-68
2023/09/28 06:32:45;;;;;;;17.40;10.40;;;;;;;33.64;28.33;101209.81;107995;1259;73124;-68
2023/09/28 06:35:13;;;;;;;18.30;10.00;;;;;;;33.76;28.07;101210.55;107975;1254;60523;-68
2023/09/28 06:37:40;;;;;;;17.00;10.60;;;;;;;33.80;27.89;101209.83;107959;1254;60297;-68
2023/09/28 06:40:08;;;;;;;16.80;10.00;;;;;;;33.63;28.03;101212.98;108011;1253;63791;-68
2023/09/28 06:42:35;;;;;;;25.30;10.60;;;;;;;33.62;27.93;101210.89;108012;1254;60099;-66
2023/09/28 06:45:09;;;;;;;19.90;10.40;;;;;;;33.41;28.07;101214.02;107959;1254;72028;-67
2023/09/28 06:47:36;;;;;;;16.70;10.70;;;;;;;33.54;28.27;101212.33;108001;1260;60544;-68
2023/09/28 06:50:25;;;;;;;18.60;9.50;;;;;;;33.71;28.02;101208.61;107954;1254;60481;-68
2023/09/28 06:52:53;;;;;;;18.20;10.10;;;;;;;34.04;27.97;101212.64;108025;1254;65367;-68
2023/09/28 06:55:24;;;;;;;17.90;9.80;;;;;;;34.53;27.54;101212.35;108015;1254;60952;-68
2023/09/28 06:57:51;;;;;;;19.60;10.10;;;;;;;34.63;27.08;101210.23;108010;1254;63916;-67
2023/09/28 07:00:20;;;;;;;19.40;9.70;;;;;;;34.73;26.90;101209.73;108055;1254;60355;-67
2023/09/28 07:02:47;;;;;;;18.50;9.00;;;;;;;34.99;26.74;101213.09;108054;1254;60165;-67
2023/09/28 07:05:18;;;;;;;18.80;9.80;;;;;;;35.39;26.37;101206.61;108079;1255;76138;-67
2023/09/28 07:07:45;;;;;;;;;;;;;;;35.56;26.22;101213.33;108108;1254;61397;-68
2023/09/28 07:10:13;;;;;;;16.50;8.50;;;;;;;35.67;26.00;101211.48;108065;1254;63741;-68
2023/09/28 07:12:40;;;;;;;18.40;8.40;;;;;;;35.98;25.83;101214.33;107913;1257;60569;-68
2023/09/28 07:15:08;;;;;;;13.60;8.30;;;;;;;36.30;25.40;101211.33;108066;1254;62281;-68
2023/09/28 07:17:36;;;;;;;13.80;8.00;;;;;;;36.62;24.85;101210.95;108001;1259;65981;-67
2023/09/28 07:20:05;;;;;;;20.80;8.10;;;;;;;36.88;24.87;101216.63;108000;1254;61345;-69
2023/09/28 07:22:33;;;;;;;14.60;8.00;;;;;;;37.19;24.70;101211.16;107994;1254;74877;-69
2023/09/28 07:25:00;;;;;;;12.20;7.90;;;;;;;37.44;24.27;101208.91;108010;1253;60168;-69
2023/09/28 07:27:32;;;;;;;12.70;8.20;;;;;;;37.70;23.88;101208.79;107937;1254;60455;-68
2023/09/28 07:29:59;;;;;;;15.20;8.20;;;;;;;38.00;23.70;101205.10;107910;1254;64956;-68
2023/09/28 07:32:29;;;;;;;13.80;8.10;;;;;;;38.31;23.29;101207.29;107733;1257;60200;-68
2023/09/28 07:34:57;;;;;;;16.30;7.70;;;;;;;38.53;22.95;101206.72;107927;1256;62974;-68
2023/09/28 07:37:24;;;;;;;16.20;7.30;;;;;;;38.60;23.03;101207.30;107908;1254;60406;-67
2023/09/28 07:39:52;;;;;;;12.40;7.60;;;;;;;38.77;22.92;101206.52;107939;1254;60291;-69
2023/09/28 07:42:19;;;;;;;24.70;7.70;;;;;;;38.92;22.55;101204.23;107978;1254;63672;-69
2023/09/28 07:44:51;;;;;;;10.90;5.80;;;;;;;39.26;22.24;101205.83;108009;1254;63942;-68
2023/09/28 07:47:19;;;;;;;22.80;7.20;;;;;;;39.69;21.82;101206.98;108001;1255;62554;-67
2023/09/28 07:49:47;;;;;;;11.80;6.40;;;;;;;39.96;21.49;101203.20;107996;1254;60291;-69
2023/09/28 07:52:15;;;;;;;15.00;6.90;;;;;;;40.29;21.18;101198.58;108038;1257;59724;-68
2023/09/28 07:54:43;;;;;;;12.00;6.40;;;;;;;40.49;20.83;101199.23;107946;1254;65026;-68
2023/09/28 07:57:11;;;;;;;13.20;6.70;;;;;;;40.63;20.73;101200.27;107917;1254;61838;-68
2023/09/28 07:59:39;;;;;;;16.00;6.20;;;;;;;40.89;20.32;101196.66;108008;1254;63682;-69
2023/09/28 08:02:09;;;;;;;15.10;6.70;;;;;;;40.94;20.14;101195.92;107833;1254;60717;-68
2023/09/28 08:04:37;;;;;;;19.10;6.40;;;;;;;40.94;19.96;101196.46;108008;1254;62266;-68
2023/09/28 08:07:04;;;;;;;16.40;6.10;;;;;;;41.07;20.00;101198.46;107940;1254;67046;-67
2023/09/28 08:09:32;;;;;;;13.30;6.10;;;;;;;41.06;19.73;101198.61;108069;1254;60229;-68
2023/09/28 08:12:00;;;;;;;19.00;6.00;;;;;;;40.71;19.85;101199.77;107960;1254;62614;-69
2023/09/28 08:14:29;;;;;;;12.00;5.90;;;;;;;40.48;20.12;101197.25;107972;1254;60387;-68
2023/09/28 08:16:57;;;;;;;18.00;6.90;;;;;;;40.60;20.16;101197.23;108092;1254;60382;-69
2023/09/28 08:19:24;;;;;;;9.90;5.80;;;;;;;40.72;20.26;101199.97;108033;1254;65563;-69
2023/09/28 08:21:55;;;;;;;;;;;;;;;40.65;19.89;101195.61;107773;1254;61264;-69
2023/09/28 08:24:22;;;;;;;10.40;6.20;;;;;;;40.51;19.92;101192.92;107988;1254;64055;-69
2023/09/28 08:26:52;;;;;;;9.50;6.20;;;;;;;40.42;20.09;101189.24;108031;1254;60326;-69
2023/09/28 08:29:19;;;;;;;12.40;6.20;;;;;;;40.52;20.07;101188.45;108025;1254;60306;-68
2023/09/28 08:31:47;;;;;;;9.40;6.00;;;;;;;40.42;20.06;101185.69;108026;1253;66081;-68
2023/09/28 08:34:14;;;;;;;10.40;5.50;;;;;;;40.48;20.00;101183.17;108034;1254;63695;-68
2023/09/28 08:37:03;;;;;;;9.40;5.90;;;;;;;41.03;19.69;101185.69;108062;1253;63948;-66
2023/09/28 08:39:31;;;;;;;16.90;6.10;;;;;;;41.37;19.07;101183.98;108071;1254;62160;-69
2023/09/28 08:42:01;;;;;;;18.90;6.00;;;;;;;41.30;19.14;101184.34;108114;1253;60300;-69
2023/09/28 08:44:31;;;;;;;13.40;5.20;;;;;;;41.45;19.20;101179.05;108089;1258;64978;-68
2023/09/28 08:46:59;;;;;;;22.70;6.10;;;;;;;41.79;18.71;101176.44;108115;1253;63355;-68
2023/09/28 08:49:27;;;;;;;9.50;5.50;;;;;;;42.06;18.64;101172.46;108082;1253;62877;-69
2023/09/28 08:51:55;;;;;;;14.20;5.70;;;;;;;42.17;18.60;101165.89;108047;1258;61503;-69
2023/09/28 08:54:24;;;;;;;11.40;5.30;;;;;;;42.14;18.23;101165.09;108154;1254;59289;-70
2023/09/28 08:56:57;;;;;;;8.20;4.90;;;;;;;41.76;18.33;101165.09;107931;1253;66910;-67
2023/09/28 08:59:28;;;;;;;8.90;5.30;;;;;;;41.75;18.60;101165.91;107916;1253;60299;-69
2023/09/28 09:01:57;;;;;;;11.00;5.70;;;;;;;41.79;18.37;101164.75;108092;1253;62598;-68
2023/09/28 09:04:25;;;;;;;11.40;5.40;;;;;;;41.52;18.77;101166.15;108029;1253;59109;-70
2023/09/28 09:06:53;;;;;;;12.10;5.60;;;;;;;41.11;18.94;101166.20;108027;1253;61266;-69
2023/09/28 09:09:21;;;;;;;11.10;5.00;;;;;;;40.91;19.17;101164.21;108036;1253;67206;-69
2023/09/28 09:11:52;;;;;;;11.70;5.00;;;;;;;40.80;18.98;101161.85;107825;1253;60572;-69
2023/09/28 09:14:20;;;;;;;15.40;5.80;;;;;;;40.81;18.97;101162.42;107952;1253;217417;-69
2023/09/28 09:18:21;;;;;;;12.60;5.40;;;;;;;39.24;20.50;101163.20;104867;1290;601065;-69
2023/09/28 09:20:49;;;;;;;12.30;5.40;;;;;;;40.13;19.85;101156.25;107376;1263;58675;-68
2023/09/28 09:23:18;;;;;;;15.50;6.30;;;;;;;40.63;19.47;101154.86;107382;1264;59239;-69
2023/09/28 09:25:53;;;;;;;15.60;5.70;;;;;;;41.02;19.02;101154.45;107776;1257;62537;-69
2023/09/28 09:28:32;;;;;;;9.70;5.20;;;;;;;41.31;18.67;101150.88;107808;1260;60933;-69
2023/09/28 09:31:01;;;;;;;14.20;5.30;;;;;;;41.23;18.71;101149.55;107517;1259;192680;-69
2023/09/28 09:33:28;;;;;;;10.80;5.10;;;;;;;41.33;18.64;101143.58;107837;1256;59235;-69
2023/09/28 09:35:56;;;;;;;8.60;5.40;;;;;;;41.68;18.23;101139.50;107815;1256;59253;-69
2023/09/28 09:38:27;;;;;;;13.70;5.70;;;;;;;41.93;18.45;101134.48;107806;1256;62797;-69
2023/09/28 09:41:01;;;;;;;11.30;5.40;;;;;;;42.03;18.28;101134.98;107852;1256;60311;-68
2023/09/28 09:43:31;;;;;;;13.30;5.20;;;;;;;42.31;17.97;101133.80;107796;1257;62780;-69
2023/09/28 09:45:58;;;;;;;15.90;5.50;;;;;;;42.84;17.69;101129.00;107784;1256;59705;-68
2023/09/28 09:48:26;;;;;;;13.10;5.10;;;;;;;43.32;17.34;101129.47;107801;1260;62188;-69
2023/09/28 09:50:53;;;;;;;14.00;5.30;;;;;;;43.18;17.40;101125.35;107548;1256;71613;-69
2023/09/28 09:53:21;;;;;;;9.60;4.80;;;;;;;43.25;17.21;101125.74;107597;1256;62105;-67
2023/09/28 09:55:48;;;;;;;10.20;5.20;;;;;;;42.93;17.29;101125.95;107715;1257;64713;-68
2023/09/28 09:58:27;;;;;;;15.00;5.20;;;;;;;42.75;17.29;101121.05;107535;1256;59537;-68
2023/09/28 10:00:55;;;;;;;14.50;5.20;;;;;;;42.65;16.95;101122.64;107757;1256;59587;-68
2023/09/28 10:03:23;;;;;;;9.20;5.50;;;;;;;42.64;17.07;101116.69;107607;1256;75160;-68
2023/09/28 10:05:50;;;;;;;12.70;6.10;;;;;;;42.46;16.68;101119.46;107770;1256;61576;-69
2023/09/28 10:08:18;;;;;;;13.70;5.80;;;;;;;42.14;16.76;101119.49;107738;1262;74836;-68
2023/09/28 10:10:46;;;;;;;15.60;5.90;;;;;;;42.13;16.74;101119.73;107538;1256;59479;-68
2023/09/28 10:13:15;;;;;;;14.00;5.30;;;;;;;41.90;16.64;101114.38;107739;1259;59173;-69
2023/09/28 10:15:43;;;;;;;15.00;6.20;;;;;;;41.76;16.26;101111.23;107820;1256;64317;-69
2023/09/28 10:18:10;;;;;;;22.70;6.00;;;;;;;41.98;16.47;101107.65;107591;1256;61376;-69
2023/09/28 10:20:38;;;;;;;13.60;5.90;;;;;;;42.15;16.61;101107.33;107682;1256;62755;-69
2023/09/28 10:23:14;;;;;;;17.20;6.00;;;;;;;42.14;16.86;101107.73;107612;1256;59586;-69
2023/09/28 10:26:06;;;;;;;14.20;5.80;;;;;;;42.37;16.30;101106.42;107743;1255;59514;-69
2023/09/28 10:29:09;;;;;;;12.50;5.80;;;;;;;42.27;16.27;101102.11;107737;1256;64445;-69
2023/09/28 10:31:39;;;;;;;15.20;5.60;;;;;;;42.05;16.22;101100.08;107746;1256;61389;-68
2023/09/28 10:34:26;;;;;;;18.70;5.90;;;;;;;41.94;16.35;101099.80;108022;1253;63773;-69
2023/09/28 10:37:11;;;;;;;15.90;6.60;;;;;;;41.72;16.44;101098.91;108041;1253;59627;-69
2023/09/28 10:39:41;;;;;;;10.90;5.90;;;;;;;41.69;16.56;101092.20;108076;1253;59595;-68
2023/09/28 10:42:15;;;;;;;16.00;5.90;;;;;;;42.00;16.44;101092.56;108079;1253;64340;-68
2023/09/28 10:44:52;;;;;;;15.40;5.80;;;;;;;41.99;15.83;101091.80;108073;1253;61292;-68
2023/09/28 10:47:21;;;;;;;10.60;5.20;;;;;;;41.36;16.09;101088.98;108041;1253;62717;-68
2023/09/28 10:49:59;;;;;;;15.30;5.40;;;;;;;40.99;16.34;101086.64;108157;1253;59579;-69
2023/09/28 10:52:27;;;;;;;15.60;6.00;;;;;;;40.97;16.45;101080.40;107979;1253;62381;-68
2023/09/28 10:54:57;;;;;;;10.20;5.60;;;;;;;41.00;16.47;101076.45;108158;1253;62966;-68
2023/09/28 10:57:29;;;;;;;17.40;6.30;;;;;;;40.88;16.40;101074.46;108113;1257;60214;-68
2023/09/28 11:00:00;;;;;;;13.80;6.10;;;;;;;41.05;16.46;101074.30;108150;1253;62653;-69
2023/09/28 11:02:27;;;;;;;10.20;5.20;;;;;;;41.05;16.64;101072.59;108154;1253;59562;-68
2023/09/28 11:04:59;;;;;;;11.80;5.30;;;;;;;40.78;16.42;101071.14;108120;1253;59469;-68
2023/09/28 11:07:28;;;;;;;14.40;5.40;;;;;;;40.59;16.49;101069.49;108120;1253;65149;-68
2023/09/28 11:09:58;;;;;;;16.30;5.70;;;;;;;40.48;16.56;101066.64;108187;1253;60177;-67
2023/09/28 11:12:28;;;;;;;15.40;5.60;;;;;;;40.68;16.52;101065.23;108138;1253;66198;-68
2023/09/28 11:14:58;;;;;;;13.80;5.10;;;;;;;40.74;16.26;101064.04;108187;1253;62308;-68